createdAt,value
2018-08-12T00:00:26.653Z,71.70
2018-08-12T00:02:57.804Z,72.38
2018-08-12T00:05:26.564Z,73.62
2018-08-12T00:07:55.482Z,73.37
2018-08-12T00:10:24.979Z,73.10
2018-08-12T00:12:53.624Z,74.90
2018-08-12T00:15:23.297Z,73.63
2018-08-12T00:17:52.037Z,73.43
2018-08-12T00:20:22.630Z,73.81
2018-08-12T00:22:51.784Z,74.87
2018-08-12T00:25:23.019Z,75.63
2018-08-12T00:27:52.374Z,76.00
2018-08-12T00:30:21.907Z,75.74
2018-08-12T00:32:50.583Z,77.19
2018-08-12T00:35:20.079Z,77.27
2018-08-12T00:37:48.837Z,77.34
2018-08-12T00:40:18.006Z,77.52
2018-08-12T00:42:48.213Z,78.86
2018-08-12T00:45:19.757Z,78.74
2018-08-12T00:47:48.864Z,80.13
2018-08-12T00:50:18.594Z,79.29
2018-08-12T00:52:47.601Z,79.39
2018-08-12T00:55:17.755Z,79.65
2018-08-12T00:57:47.615Z,79.80
2018-08-12T01:00:18.552Z,80.56
2018-08-12T01:02:47.820Z,81.42
2018-08-12T01:05:17.702Z,81.77
2018-08-12T01:07:47.400Z,81.71
2018-08-12T01:10:16.794Z,82.22
2018-08-12T01:12:45.748Z,82.26
2018-08-12T01:15:16.937Z,82.71
2018-08-12T01:17:45.941Z,82.91
2018-08-12T01:20:21.242Z,83.58
2018-08-12T01:22:50.265Z,83.75
2018-08-12T01:25:19.748Z,83.87
2018-08-12T01:27:48.458Z,84.78
2018-08-12T01:30:19.196Z,84.69
2018-08-12T01:32:48.584Z,83.22
2018-08-12T01:35:17.798Z,84.06
2018-08-12T01:37:47.383Z,84.71
2018-08-12T01:40:17.197Z,85.01
2018-08-12T01:42:46.445Z,85.34
2018-08-12T01:45:17.026Z,85.08
2018-08-12T01:47:45.881Z,85.61
2018-08-12T01:50:16.088Z,85.52
2018-08-12T01:52:44.795Z,85.46
2018-08-12T01:55:13.612Z,85.82
2018-08-12T01:57:42.367Z,86.11
2018-08-12T02:00:20.806Z,85.48
2018-08-12T02:02:50.535Z,86.04
2018-08-12T02:05:19.823Z,86.68
2018-08-12T02:07:48.903Z,86.47
2018-08-12T02:10:17.670Z,86.54
2018-08-12T02:12:46.374Z,87.13
2018-08-12T02:15:15.010Z,87.13
2018-08-12T02:17:43.745Z,88.20
2018-08-12T02:20:13.064Z,88.83
2018-08-12T02:22:42.293Z,89.18
2018-08-12T02:25:11.936Z,89.08
2018-08-12T02:27:40.534Z,88.65
2018-08-12T02:30:11.236Z,87.88
2018-08-12T02:32:40.505Z,88.14
2018-08-12T02:35:09.768Z,88.74
2018-08-12T02:37:39.415Z,88.51
2018-08-12T02:40:09.426Z,89.07
2018-08-12T02:42:38.159Z,89.87
2018-08-12T02:45:10.681Z,90.16
2018-08-12T02:47:39.366Z,90.55
2018-08-12T02:50:08.233Z,90.56
2018-08-12T02:52:37.364Z,90.41
2018-08-12T02:55:07.596Z,89.93
2018-08-12T02:57:36.407Z,91.03
2018-08-12T03:00:06.554Z,89.52
2018-08-12T03:02:35.310Z,87.12
2018-08-12T03:05:04.449Z,86.47
2018-08-12T03:07:33.374Z,87.46
2018-08-12T03:10:01.941Z,86.49
2018-08-12T03:12:30.941Z,85.72
2018-08-12T03:14:59.786Z,85.33
2018-08-12T03:17:28.710Z,85.34
2018-08-12T03:19:57.803Z,85.32
2018-08-12T03:22:26.636Z,86.66
2018-08-12T03:24:55.220Z,85.17
2018-08-12T03:27:24.084Z,86.95
2018-08-12T03:29:52.969Z,86.59
2018-08-12T03:32:21.965Z,86.14
2018-08-12T03:34:50.536Z,86.21
2018-08-12T03:37:19.583Z,86.46
2018-08-12T03:39:48.503Z,86.35
2018-08-12T03:42:17.254Z,86.59
2018-08-12T03:44:46.305Z,84.81
2018-08-12T03:47:14.920Z,85.77
2018-08-12T03:49:43.639Z,86.84
2018-08-12T03:52:12.365Z,86.79
2018-08-12T03:54:41.797Z,86.64
2018-08-12T03:57:10.443Z,86.16
2018-08-12T03:59:39.061Z,87.22
2018-08-12T04:05:03.658Z,87.86
2018-08-12T04:07:32.390Z,86.58
2018-08-12T04:10:01.172Z,86.01
2018-08-12T04:12:29.821Z,86.29
2018-08-12T04:14:58.607Z,85.88
2018-08-12T04:17:27.451Z,86.13
2018-08-12T04:19:56.345Z,86.12
2018-08-12T04:22:25.175Z,85.86
2018-08-12T04:24:53.825Z,86.38
2018-08-12T04:27:22.624Z,86.06
2018-08-12T04:29:51.411Z,86.24
2018-08-12T04:32:20.237Z,86.95
2018-08-12T04:34:48.943Z,86.46
2018-08-12T04:37:17.976Z,85.82
2018-08-12T04:39:46.872Z,86.40
2018-08-12T04:42:15.481Z,85.22
2018-08-12T04:44:44.240Z,85.74
2018-08-12T04:47:13.053Z,85.54
2018-08-12T04:49:41.736Z,85.57
2018-08-12T04:52:10.648Z,85.99
2018-08-12T04:54:39.378Z,85.07
2018-08-12T04:57:07.997Z,84.78
2018-08-12T04:59:36.948Z,83.01
2018-08-12T05:02:06.053Z,82.93
2018-08-12T05:04:34.978Z,83.05
2018-08-12T05:07:03.835Z,82.88
2018-08-12T05:09:32.591Z,82.56
2018-08-12T05:12:01.473Z,83.87
2018-08-12T05:14:30.292Z,81.07
2018-08-12T05:16:59.218Z,80.09
2018-08-12T05:19:28.127Z,80.45
2018-08-12T05:21:57.004Z,81.48
2018-08-12T05:24:25.840Z,80.91
2018-08-12T05:26:54.471Z,78.64
2018-08-12T05:29:23.152Z,77.45
2018-08-12T05:31:51.888Z,77.59
2018-08-12T05:34:20.638Z,76.88
2018-08-12T05:36:49.470Z,76.49
2018-08-12T05:39:18.534Z,78.00
2018-08-12T05:41:47.211Z,75.40
2018-08-12T05:44:15.847Z,76.10
2018-08-12T05:46:44.569Z,75.59
2018-08-12T05:49:13.323Z,74.01
2018-08-12T05:51:42.190Z,75.28
2018-08-12T05:54:10.949Z,75.11
2018-08-12T05:56:39.786Z,73.75
2018-08-12T05:59:08.684Z,74.37
2018-08-12T06:01:37.593Z,74.84
2018-08-12T06:04:06.468Z,71.57
2018-08-12T06:06:35.583Z,71.69
2018-08-12T06:09:06.905Z,70.71
2018-08-12T06:11:36.165Z,69.50
2018-08-12T06:14:06.205Z,69.33
2018-08-12T06:16:35.044Z,69.58
2018-08-12T06:19:03.905Z,68.24
2018-08-12T06:21:32.525Z,68.49
2018-08-12T06:24:01.152Z,68.12
2018-08-12T06:26:29.836Z,68.09
2018-08-12T06:28:58.893Z,67.52
2018-08-12T06:31:27.544Z,66.96
2018-08-12T06:33:56.306Z,66.50
2018-08-12T06:36:25.086Z,66.04
2018-08-12T06:38:53.780Z,65.40
2018-08-12T06:41:23.163Z,65.34
2018-08-12T06:43:52.725Z,65.29
2018-08-12T06:46:22.709Z,63.72
2018-08-12T06:48:51.419Z,64.21
2018-08-12T06:51:20.167Z,64.58
2018-08-12T06:53:48.912Z,64.12
2018-08-12T06:56:18.214Z,63.53
2018-08-12T06:58:46.984Z,63.35
2018-08-12T07:01:15.664Z,63.33
2018-08-12T07:03:44.349Z,62.50
2018-08-12T07:06:13.190Z,60.87
2018-08-12T07:08:41.780Z,61.47
2018-08-12T07:11:10.860Z,61.26
2018-08-12T07:13:39.439Z,61.04
2018-08-12T07:16:08.729Z,60.88
2018-08-12T07:18:37.692Z,60.78
2018-08-12T07:21:06.724Z,60.09
2018-08-12T07:23:35.404Z,59.56
2018-08-12T07:26:04.065Z,59.59
2018-08-12T07:28:33.200Z,59.71
2018-08-12T07:31:02.600Z,58.92
2018-08-12T07:33:31.767Z,58.73
2018-08-12T07:36:01.155Z,59.14
2018-08-12T07:38:29.956Z,59.02
2018-08-12T07:40:58.585Z,58.12
2018-08-12T07:43:28.888Z,57.31
2018-08-12T07:45:57.647Z,57.10
2018-08-12T07:48:26.483Z,57.00
2018-08-12T07:50:55.537Z,56.36
2018-08-12T07:53:24.659Z,55.74
2018-08-12T07:55:54.072Z,55.74
2018-08-12T07:58:23.322Z,55.81
2018-08-12T08:00:53.037Z,55.24
2018-08-12T08:03:21.879Z,54.52
2018-08-12T08:05:50.640Z,55.15
2018-08-12T08:08:19.373Z,54.07
2018-08-12T08:10:48.138Z,52.94
2018-08-12T08:13:17.176Z,52.49
2018-08-12T08:15:45.877Z,50.39
2018-08-12T08:18:14.690Z,50.08
2018-08-12T08:20:43.356Z,50.27
2018-08-12T08:23:12.287Z,50.88
2018-08-12T08:25:42.328Z,50.20
2018-08-12T08:28:11.157Z,50.62
2018-08-12T08:30:40.056Z,49.17
2018-08-12T08:33:08.944Z,49.18
2018-08-12T08:35:38.301Z,49.01
2018-08-12T08:38:07.798Z,48.38
2018-08-12T08:40:37.395Z,46.90
2018-08-12T08:43:06.323Z,46.16
2018-08-12T08:45:35.021Z,45.90
2018-08-12T08:48:04.060Z,45.90
2018-08-12T08:50:33.220Z,46.25
2018-08-12T08:53:01.839Z,45.37
2018-08-12T08:55:31.406Z,45.22
2018-08-12T08:58:00.192Z,44.48
2018-08-12T09:00:29.036Z,43.89
2018-08-12T09:02:59.985Z,42.77
2018-08-12T09:05:28.675Z,43.70
2018-08-12T09:07:58.402Z,43.59
2018-08-12T09:10:27.388Z,42.88
2018-08-12T09:12:56.031Z,41.30
2018-08-12T09:15:27.850Z,40.60
2018-08-12T09:17:56.759Z,41.10
2018-08-12T09:20:25.412Z,41.38
2018-08-12T09:22:54.475Z,41.22
2018-08-12T09:25:23.236Z,42.34
2018-08-12T09:27:52.744Z,40.55
2018-08-12T09:30:22.489Z,39.67
2018-08-12T09:32:51.536Z,40.93
2018-08-12T09:35:21.636Z,40.23
2018-08-12T09:37:50.492Z,40.98
2018-08-12T09:40:23.561Z,39.80
2018-08-12T09:42:53.506Z,39.27
2018-08-12T09:45:22.911Z,39.96
2018-08-12T09:47:52.025Z,39.25
2018-08-12T09:50:21.364Z,39.04
2018-08-12T09:52:55.034Z,38.72
2018-08-12T09:55:25.319Z,38.32
2018-08-12T09:57:54.184Z,38.44
2018-08-12T10:00:28.736Z,36.85
2018-08-12T10:02:58.503Z,37.34
2018-08-12T10:05:27.980Z,37.12
2018-08-12T10:07:57.730Z,37.23
2018-08-12T10:10:27.172Z,37.07
2018-08-12T10:12:55.836Z,36.78
2018-08-12T10:15:24.613Z,36.88
2018-08-12T10:17:56.557Z,36.87
2018-08-12T10:20:27.312Z,35.81
2018-08-12T10:22:56.220Z,35.58
2018-08-12T10:25:25.184Z,35.85
2018-08-12T10:27:54.092Z,36.65
2018-08-12T10:30:22.970Z,34.78
2018-08-12T10:32:52.093Z,35.80
2018-08-12T10:35:27.687Z,34.82
2018-08-12T10:37:56.606Z,35.20
2018-08-12T10:40:25.226Z,33.94
2018-08-12T10:42:53.924Z,32.51
2018-08-12T10:45:23.905Z,32.47
2018-08-12T10:47:52.507Z,31.93
2018-08-12T10:50:21.479Z,31.29
2018-08-12T10:52:50.924Z,30.80
2018-08-12T10:55:22.219Z,31.59
2018-08-12T10:57:52.453Z,31.21
2018-08-12T11:00:25.078Z,31.89
2018-08-12T11:02:54.174Z,29.07
2018-08-12T11:05:23.060Z,29.17
2018-08-12T11:07:59.531Z,27.48
2018-08-12T11:10:29.134Z,28.03
2018-08-12T11:12:58.511Z,27.90
2018-08-12T11:15:27.441Z,27.14
2018-08-12T11:17:56.199Z,26.16
2018-08-12T11:20:25.096Z,26.38
2018-08-12T11:22:53.824Z,25.60
2018-08-12T11:25:22.812Z,24.40
2018-08-12T11:27:51.546Z,25.19
2018-08-12T11:30:21.328Z,26.21
2018-08-12T11:32:50.074Z,24.88
2018-08-12T11:35:19.107Z,24.48
2018-08-12T11:37:48.564Z,24.99
2018-08-12T11:40:17.527Z,25.18
2018-08-12T11:42:46.993Z,24.00
2018-08-12T11:45:18.743Z,23.99
2018-08-12T11:47:49.094Z,22.84
2018-08-12T11:50:18.595Z,23.26
2018-08-12T11:52:47.618Z,23.31
2018-08-12T11:55:18.064Z,23.99
2018-08-12T11:57:47.447Z,23.10
2018-08-12T12:00:19.332Z,23.45
2018-08-12T12:02:50.248Z,23.19
2018-08-12T12:05:19.088Z,22.82
2018-08-12T12:07:48.121Z,21.52
2018-08-12T12:10:18.805Z,22.28
2018-08-12T12:12:48.644Z,22.67
2018-08-12T12:15:17.775Z,21.39
2018-08-12T12:17:46.897Z,21.40
2018-08-12T12:20:16.457Z,22.16
2018-08-12T12:22:45.964Z,22.01
2018-08-12T12:25:16.232Z,21.94
2018-08-12T12:27:44.864Z,22.56
2018-08-12T12:30:18.054Z,20.97
2018-08-12T12:32:47.573Z,21.47
2018-08-12T12:35:16.247Z,21.17
2018-08-12T12:37:45.384Z,20.94
2018-08-12T12:40:15.819Z,21.21
2018-08-12T12:42:45.340Z,21.99
2018-08-12T12:45:14.853Z,21.54
2018-08-12T12:47:44.296Z,20.56
2018-08-12T12:50:17.185Z,21.64
2018-08-12T12:52:47.183Z,21.67
2018-08-12T12:55:15.900Z,21.84
2018-08-12T12:57:45.120Z,20.97
2018-08-12T13:00:15.975Z,20.26
2018-08-12T13:02:45.613Z,19.21
2018-08-12T13:05:16.385Z,18.70
2018-08-12T13:07:46.549Z,19.49
2018-08-12T13:10:16.966Z,19.66
2018-08-12T13:12:46.735Z,19.42
2018-08-12T13:15:16.459Z,20.09
2018-08-12T13:17:45.756Z,19.59
2018-08-12T13:20:18.058Z,18.43
2018-08-12T13:22:47.607Z,18.61
2018-08-12T13:25:18.131Z,18.51
2018-08-12T13:27:47.032Z,17.48
2018-08-12T13:30:17.018Z,19.33
2018-08-12T13:32:46.649Z,18.07
2018-08-12T13:35:17.588Z,16.97
2018-08-12T13:37:46.690Z,18.78
2018-08-12T13:40:16.586Z,18.28
2018-08-12T13:42:46.178Z,16.74
2018-08-12T13:45:15.421Z,16.57
2018-08-12T13:47:45.430Z,16.82
2018-08-12T13:50:18.679Z,16.78
2018-08-12T13:52:47.929Z,16.65
2018-08-12T13:55:17.125Z,16.23
2018-08-12T13:57:46.207Z,16.29
2018-08-12T14:00:16.597Z,16.65
2018-08-12T14:02:45.431Z,16.74
2018-08-12T14:05:15.961Z,17.72
2018-08-12T14:07:46.076Z,16.72
2018-08-12T14:10:15.064Z,15.23
2018-08-12T14:12:44.921Z,16.38
2018-08-12T14:15:16.477Z,16.61
2018-08-12T14:17:46.354Z,15.61
2018-08-12T14:20:16.704Z,15.93
2018-08-12T14:22:45.336Z,17.93
2018-08-12T14:25:14.601Z,16.84
2018-08-12T14:27:44.070Z,17.33
2018-08-12T14:30:16.187Z,17.04
2018-08-12T14:32:45.519Z,16.89
2018-08-12T14:35:14.446Z,15.78
2018-08-12T14:37:43.212Z,15.81
2018-08-12T14:40:12.935Z,16.59
2018-08-12T14:42:42.149Z,19.21
2018-08-12T14:45:13.137Z,21.69
2018-08-12T14:47:43.738Z,21.16
2018-08-12T14:50:16.379Z,16.96
2018-08-12T14:52:45.064Z,16.96
2018-08-12T14:55:14.447Z,16.63
2018-08-12T14:57:44.129Z,16.96
2018-08-12T15:00:16.518Z,17.83
2018-08-12T15:02:47.516Z,18.94
2018-08-12T15:05:17.114Z,19.82
2018-08-12T15:07:46.205Z,22.40
2018-08-12T15:10:15.055Z,23.20
2018-08-12T15:12:44.138Z,22.44
2018-08-12T15:15:14.139Z,22.20
2018-08-12T15:17:44.216Z,22.60
2018-08-12T15:20:13.757Z,24.22
2018-08-12T15:22:42.933Z,24.01
2018-08-12T15:25:14.596Z,23.01
2018-08-12T15:27:43.396Z,23.24
2018-08-12T15:30:12.351Z,22.22
2018-08-12T15:32:41.297Z,23.80
2018-08-12T15:35:10.668Z,23.01
2018-08-12T15:37:39.844Z,23.87
2018-08-12T15:40:12.983Z,24.01
2018-08-12T15:42:43.232Z,24.84
2018-08-12T15:45:13.960Z,23.98
2018-08-12T15:47:43.495Z,24.29
2018-08-12T15:50:12.777Z,23.40
2018-08-12T15:52:43.275Z,23.53
2018-08-12T15:55:12.306Z,23.82
2018-08-12T15:57:41.656Z,22.72
2018-08-12T16:00:15.459Z,22.39
2018-08-12T16:02:44.682Z,22.94
2018-08-12T16:05:20.672Z,23.10
2018-08-12T16:07:50.074Z,24.66
2018-08-12T16:10:21.386Z,26.25
2018-08-12T16:12:51.396Z,25.58
2018-08-12T16:15:20.507Z,24.58
2018-08-12T16:17:49.734Z,24.04
2018-08-12T16:20:18.806Z,24.89
2018-08-12T16:22:48.438Z,25.17
2018-08-12T16:25:18.772Z,23.92
2018-08-12T16:27:47.515Z,24.49
2018-08-12T16:30:17.712Z,25.05
2018-08-12T16:32:46.674Z,25.64
2018-08-12T16:35:16.464Z,25.13
2018-08-12T16:37:46.053Z,25.13
2018-08-12T16:40:18.257Z,24.14
2018-08-12T16:42:48.055Z,25.49
2018-08-12T16:45:17.578Z,24.65
2018-08-12T16:47:46.665Z,24.83
2018-08-12T16:50:15.547Z,24.97
2018-08-12T16:52:45.030Z,25.91
2018-08-12T16:55:15.389Z,25.57
2018-08-12T16:57:45.080Z,25.40
2018-08-12T17:00:15.556Z,26.62
2018-08-12T17:02:45.038Z,26.13
2018-08-12T17:05:17.880Z,28.82
2018-08-12T17:07:46.709Z,28.55
2018-08-12T17:10:19.966Z,29.56
2018-08-12T17:12:48.819Z,26.96
2018-08-12T17:15:19.685Z,27.29
2018-08-12T17:17:49.455Z,28.65
2018-08-12T17:20:20.545Z,32.01
2018-08-12T17:22:49.570Z,29.93
2018-08-12T17:25:18.404Z,33.88
2018-08-12T17:27:47.263Z,32.05
2018-08-12T17:30:17.202Z,37.03
2018-08-12T17:32:45.919Z,35.13
2018-08-12T17:35:14.707Z,36.13
2018-08-12T17:37:44.538Z,37.64
2018-08-12T17:40:14.559Z,37.14
2018-08-12T17:42:43.709Z,37.54
2018-08-12T17:45:13.687Z,37.64
2018-08-12T17:47:44.160Z,38.24
2018-08-12T17:50:16.263Z,40.83
2018-08-12T17:52:44.900Z,36.99
2018-08-12T17:55:14.194Z,41.21
2018-08-12T17:57:43.027Z,44.36
2018-08-12T18:00:13.639Z,41.85
2018-08-12T18:02:43.474Z,42.53
2018-08-12T18:05:12.314Z,44.70
2018-08-12T18:07:50.406Z,45.92
2018-08-12T18:10:19.507Z,45.42
2018-08-12T18:12:48.340Z,43.08
2018-08-12T18:15:17.454Z,44.77
2018-08-12T18:17:46.082Z,44.53
2018-08-12T18:20:15.034Z,46.29
2018-08-12T18:22:43.719Z,46.21
2018-08-12T18:25:12.803Z,47.29
2018-08-12T18:27:42.293Z,46.48
2018-08-12T18:30:13.266Z,47.50
2018-08-12T18:32:42.381Z,47.74
2018-08-12T18:35:13.532Z,49.73
2018-08-12T18:37:43.232Z,49.77
2018-08-12T18:40:12.918Z,48.54
2018-08-12T18:42:41.921Z,49.56
2018-08-12T18:45:10.861Z,48.46
2018-08-12T18:47:39.478Z,49.01
2018-08-12T18:50:09.506Z,48.98
2018-08-12T18:52:38.409Z,47.03
2018-08-12T18:55:08.936Z,50.34
2018-08-12T18:57:37.925Z,50.94
2018-08-12T19:00:08.932Z,49.35
2018-08-12T19:02:39.018Z,49.20
2018-08-12T19:05:08.987Z,49.77
2018-08-12T19:07:37.658Z,49.27
2018-08-12T19:10:07.778Z,47.76
2018-08-12T19:12:36.713Z,48.65
2018-08-12T19:15:07.631Z,49.19
2018-08-12T19:17:36.925Z,52.84
2018-08-12T19:20:07.111Z,51.29
2018-08-12T19:22:36.290Z,51.41
2018-08-12T19:25:08.826Z,51.17
2018-08-12T19:27:38.727Z,52.36
2018-08-12T19:30:12.205Z,52.20
2018-08-12T19:32:41.122Z,50.82
2018-08-12T19:35:10.874Z,51.36
2018-08-12T19:37:39.648Z,53.67
2018-08-12T19:40:09.620Z,54.04
2018-08-12T19:42:38.539Z,55.09
2018-08-12T19:45:08.424Z,55.06
2018-08-12T19:47:37.199Z,55.25
2018-08-12T19:50:06.472Z,56.21
2018-08-12T19:52:35.859Z,54.93
2018-08-12T19:55:05.704Z,56.85
2018-08-12T19:57:34.503Z,56.76
2018-08-12T20:00:03.645Z,56.98
2018-08-12T20:02:32.495Z,57.35
2018-08-12T20:05:01.952Z,58.72
2018-08-12T20:07:31.888Z,58.80
2018-08-12T20:10:00.588Z,57.21
2018-08-12T20:12:29.517Z,57.08
2018-08-12T20:14:58.295Z,57.65
2018-08-12T20:17:27.548Z,56.88
2018-08-12T20:19:56.344Z,58.43
2018-08-12T20:22:26.565Z,60.39
2018-08-12T20:24:55.427Z,61.08
2018-08-12T20:27:24.158Z,58.45
2018-08-12T20:29:52.996Z,59.55
2018-08-12T20:32:22.091Z,59.48
2018-08-12T20:34:50.859Z,59.22
2018-08-12T20:37:19.665Z,59.69
2018-08-12T20:39:48.512Z,59.75
2018-08-12T20:42:17.453Z,59.68
2018-08-12T20:44:47.525Z,60.27
2018-08-12T20:47:16.327Z,61.55
2018-08-12T20:49:45.293Z,61.25
2018-08-12T20:52:14.132Z,61.60
2018-08-12T20:54:43.262Z,61.56
2018-08-12T20:57:12.637Z,61.70
2018-08-12T20:59:41.703Z,62.52
2018-08-12T21:02:10.814Z,63.85
2018-08-12T21:04:39.552Z,63.53
2018-08-12T21:07:08.652Z,63.28
2018-08-12T21:09:38.294Z,64.01
2018-08-12T21:12:07.432Z,63.03
2018-08-12T21:14:36.173Z,64.17
2018-08-12T21:17:04.927Z,64.07
2018-08-12T21:19:33.809Z,63.92
2018-08-12T21:22:03.927Z,64.86
2018-08-12T21:24:33.228Z,65.24
2018-08-12T21:27:03.054Z,65.04
2018-08-12T21:29:32.123Z,66.10
2018-08-12T21:32:01.002Z,65.77
2018-08-12T21:34:30.436Z,65.82
2018-08-12T21:36:59.756Z,65.80
2018-08-12T21:39:30.420Z,65.97
2018-08-12T21:41:59.592Z,66.83
2018-08-12T21:44:30.067Z,65.87
2018-08-12T21:47:00.665Z,65.95
2018-08-12T21:49:30.116Z,67.37
2018-08-12T21:52:02.078Z,68.04
2018-08-12T21:54:30.917Z,67.74
2018-08-12T21:56:59.556Z,68.04
2018-08-12T21:59:28.309Z,68.23
2018-08-12T22:01:57.059Z,67.71
2018-08-12T22:04:25.774Z,68.04
2018-08-12T22:06:54.864Z,69.23
2018-08-12T22:09:23.497Z,68.54
2018-08-12T22:11:52.261Z,69.61
2018-08-12T22:14:21.705Z,69.84
2018-08-12T22:16:50.337Z,68.60
2018-08-12T22:19:19.237Z,70.35
2018-08-12T22:21:47.932Z,70.31
2018-08-12T22:24:16.591Z,70.72
2018-08-12T22:26:45.321Z,70.65
2018-08-12T22:29:14.084Z,70.55
2018-08-12T22:31:42.821Z,71.61
2018-08-12T22:34:11.740Z,70.59
2018-08-12T22:36:41.371Z,71.01
2018-08-12T22:39:10.896Z,72.28
2018-08-12T22:41:39.727Z,72.13
2018-08-12T22:44:08.848Z,71.51
2018-08-12T22:46:37.763Z,71.53
2018-08-12T22:49:06.977Z,72.08
2018-08-12T22:51:35.993Z,71.77
2018-08-12T22:54:04.960Z,72.02
2018-08-12T22:56:33.552Z,72.04
2018-08-12T22:59:02.431Z,72.27
2018-08-12T23:01:31.349Z,73.23
2018-08-12T23:04:00.320Z,72.35
2018-08-12T23:06:29.086Z,72.54
2018-08-12T23:08:57.718Z,73.12
2018-08-12T23:11:26.540Z,73.42
2018-08-12T23:13:55.236Z,73.27
2018-08-12T23:16:35.121Z,73.55
2018-08-12T23:19:03.916Z,73.67
2018-08-12T23:21:32.559Z,73.65
2018-08-12T23:24:01.421Z,73.74
2018-08-12T23:26:30.208Z,73.80
2018-08-12T23:28:58.855Z,74.08
2018-08-12T23:31:27.630Z,74.62
2018-08-12T23:33:56.782Z,74.90
2018-08-12T23:36:25.611Z,75.08
2018-08-12T23:38:54.469Z,75.31
2018-08-12T23:41:23.396Z,75.61
2018-08-12T23:43:52.086Z,75.94
2018-08-12T23:46:20.931Z,75.73
2018-08-12T23:48:49.532Z,75.92
2018-08-12T23:51:18.299Z,75.58
2018-08-12T23:53:47.410Z,76.07
2018-08-12T23:56:16.088Z,77.78
2018-08-12T23:58:44.874Z,76.35
